Terminal Aerodrome Forecast
Issued by NWS

Home | Current Version | Previous Version | Text Only | Print | Product List | Glossary On
Versions: 1 2 3 4 5 6 7 8 9 10 11 12 13 14 15 16
000
FTUS44 KBMX 290008 AAA
TAFEET
TAF AMD
KEET 290008Z 2900/2924 12008KT P6SM VCTS SCT040CB
      TEMPO 2901/2902 14020G25KT 2SM TSRA
     FM290300 00000KT P6SM SCT250
     FM290800 00000KT 4SM BR SKC
     FM291200 00000KT 2SM BR BKN015
     FM291500 14004KT P6SM VCTS BKN050CB=

USA.gov is the U.S. government's official web portal to all federal, state and local government web resources and services.